Wendover, UT

1:06 AM MDT on August 28, 2014 (GMT -0600)
Wendover | Change Station
CLOSE
Current Station
Airport
Location: Wendover,
Elevation: 4239 ft
Nearby Weather Stations

Elev 4239 ft 40.72 °N, 114.03 °W | Updated 11 minutes ago

Clear
Clear
66 °F
Feels Like 66 °F
N
4
Wind Variable Wind from NE

Today
High -- | Low -- °F
--% Chance of Precip.
Yesterday
High -- | Low -- °F
Precip. -- in
6:59 AM 8:14 PM
Waxing Crescent, 7% visible
Pressure 30.18 in
Visibility 10.0 miles
Clouds Clear
Dew Point 46 °F
Humidity 49%
Rainfall 0.00 in
Snow Depth Not available.
UV 0 out of 12
Pollen 7.40 out of 12
PM2.5 Good
Flu Activity Not available.
METAR KENV 280655Z 04003KT 10SM CLR 19/08 A3018 RMK AO1

More Conditions Fewer Conditions

Pressure 30.18 in
Visibility 10.0 miles
Clouds Clear
Dew Point 46 °F
Humidity 49%
Rainfall 0.00 in
Snow Depth Not available.
UV 0 out of 12
Pollen 7.40 out of 12
PM2.5 Good
Flu Activity Not available.
METAR KENV 280655Z 04003KT 10SM CLR 19/08 A3018 RMK AO1

More Conditions Fewer Conditions

10-Day Weather Forecast

Almanac

Astronomy

Aug. 28, 2014 Rise Set
Actual Time 6:59 AM MDT 8:14 PM MDT
Civil Twilight 6:30 AM MDT 8:42 PM MDT
Nautical Twilight 5:56 AM MDT 9:16 PM MDT
Astronomical Twilight 5:21 AM MDT 9:52 PM MDT
Moon 9:56 AM MDT 9:39 PM MDT
Length of Visible Light 14h 11m
Length of Day
13h 15m
Tomorrow will be 2m 34s shorter.
Waxing Crescent, 7% of the Moon is Illuminated
Today
Waxing Crescent
Sep 2
First Quarter
Sep 8
Full
Sep 15
Last Quarter
Sep 24
New

Today's Extremes

State Highs State Lows

Community

WunderPhotos

Upload Photos

1,747,912 photos uploaded!

Nearby

Air Quality

  Air Quality AQ Index Pollutant
Yesterday Good
OZONE
Yesterday Good
PM2.5
Current Good
PM2.5

Snow Depth

Station Depth Elevation
Rocky Basin-Settlement 0 in 8900 ft
Dry Fork 0 in 7160 ft
Ben Lomond Peak 0 in 8000 ft
Parrish Creek 0 in 7740 ft
Louis Meadow 0 in 6700 ft

Earthquake Activity

City Distance Mag. Time & Date
No recent earthquake activity has been reported nearby.
Minimum magnitude displayed is 2.5.

Coastal Water Temperatures

Place Temperature
No Stations Reporting

Nearby Weather Stations